createdAt,value
2022-11-18T00:01:25.417Z,11.90
2022-11-18T00:06:25.646Z,12.08
2022-11-18T00:11:43.690Z,11.95
2022-11-18T00:16:35.288Z,11.91
2022-11-18T00:21:26.869Z,11.89
2022-11-18T00:26:18.445Z,12.13
2022-11-18T00:31:12.548Z,11.95
2022-11-18T00:36:05.338Z,11.77
2022-11-18T00:41:02.058Z,12.00
2022-11-18T00:45:53.824Z,11.89
2022-11-18T00:50:45.404Z,11.81
2022-11-18T00:55:36.995Z,11.58
2022-11-18T01:00:28.694Z,11.96
2022-11-18T01:05:20.537Z,11.42
2022-11-18T01:10:12.210Z,8.21
2022-11-18T01:15:03.983Z,11.17
2022-11-18T01:19:55.553Z,11.51
2022-11-18T01:24:47.179Z,9.38
2022-11-18T01:29:38.727Z,11.55
2022-11-18T01:34:30.311Z,11.96
2022-11-18T01:39:22.232Z,11.52
2022-11-18T01:44:51.420Z,11.85
2022-11-18T01:49:43.069Z,11.21
2022-11-18T01:54:40.985Z,11.80
2022-11-18T01:59:37.622Z,11.59
2022-11-18T02:04:29.454Z,11.59
2022-11-18T02:09:21.938Z,11.51
2022-11-18T02:14:13.577Z,10.66
2022-11-18T02:19:31.349Z,11.18
2022-11-18T02:24:41.868Z,11.75
2022-11-18T02:29:42.022Z,10.80
2022-11-18T02:34:33.571Z,11.78
2022-11-18T02:39:31.844Z,11.41
2022-11-18T02:44:26.303Z,11.78
2022-11-18T02:49:23.724Z,11.27
2022-11-18T02:54:17.146Z,11.69
2022-11-18T02:59:08.696Z,11.39
2022-11-18T03:04:00.445Z,11.45
2022-11-18T03:09:10.237Z,11.83
2022-11-18T03:14:08.166Z,11.92
2022-11-18T03:19:16.177Z,11.56
2022-11-18T03:24:17.636Z,11.80
2022-11-18T03:29:24.454Z,11.94
2022-11-18T03:34:28.530Z,12.05
2022-11-18T03:39:22.576Z,11.85
2022-11-18T03:44:20.101Z,11.28
2022-11-18T03:49:19.967Z,11.30
2022-11-18T03:54:20.744Z,11.87
2022-11-18T03:59:23.703Z,10.93
2022-11-18T04:04:15.688Z,11.85
2022-11-18T04:09:13.613Z,11.83
2022-11-18T04:14:08.332Z,11.12
2022-11-18T04:19:05.768Z,11.27
2022-11-18T04:23:58.056Z,11.83
2022-11-18T04:28:49.620Z,11.27
2022-11-18T04:33:41.183Z,11.42
2022-11-18T04:38:32.792Z,11.19
2022-11-18T04:43:24.327Z,12.05
2022-11-18T04:48:16.200Z,11.85
2022-11-18T04:53:07.749Z,11.68
2022-11-18T04:57:59.327Z,12.33
2022-11-18T05:02:51.003Z,11.88
2022-11-18T05:07:42.964Z,10.84
2022-11-18T05:12:49.778Z,11.69
2022-11-18T05:17:41.764Z,11.56
2022-11-18T05:22:33.456Z,11.65
2022-11-18T05:27:25.019Z,11.59
2022-11-18T05:32:16.582Z,12.46
2022-11-18T05:37:08.367Z,11.72
2022-11-18T05:42:19.063Z,11.99
2022-11-18T05:47:11.142Z,11.57
2022-11-18T05:52:03.058Z,11.52
2022-11-18T05:56:54.662Z,11.73
2022-11-18T06:01:51.176Z,11.47
2022-11-18T06:06:46.071Z,11.49
2022-11-18T06:11:46.032Z,10.59
2022-11-18T06:16:41.295Z,11.25
2022-11-18T06:21:33.723Z,11.34
2022-11-18T06:26:25.371Z,11.93
2022-11-18T06:31:17.000Z,12.08
2022-11-18T06:36:09.315Z,11.84
2022-11-18T06:41:02.007Z,12.17
2022-11-18T06:46:12.176Z,11.72
2022-11-18T06:51:08.009Z,12.17
2022-11-18T06:56:04.056Z,12.44
2022-11-18T07:00:55.768Z,11.54
2022-11-18T07:05:47.457Z,11.24
2022-11-18T07:10:39.167Z,10.76
2022-11-18T07:15:31.066Z,11.99
2022-11-18T07:20:22.680Z,11.89
2022-11-18T07:25:14.352Z,11.50
2022-11-18T07:30:06.561Z,11.74
2022-11-18T07:34:58.163Z,12.45
2022-11-18T07:39:49.820Z,12.48
2022-11-18T07:44:41.430Z,12.81
2022-11-18T07:49:33.038Z,12.47
2022-11-18T07:54:24.680Z,13.11
2022-11-18T07:59:16.597Z,12.73
2022-11-18T08:04:11.132Z,13.64
2022-11-18T08:09:03.956Z,13.31
2022-11-18T08:13:55.581Z,13.27
2022-11-18T08:18:47.598Z,12.48
2022-11-18T08:23:42.303Z,13.82
2022-11-18T08:28:35.003Z,14.15
2022-11-18T08:33:26.852Z,11.70
2022-11-18T08:38:18.613Z,14.11
2022-11-18T08:43:11.692Z,13.78
2022-11-18T08:48:03.401Z,14.27
2022-11-18T08:52:54.992Z,13.93
2022-11-18T08:57:47.823Z,15.09
2022-11-18T09:02:39.686Z,14.51
2022-11-18T09:07:31.268Z,14.79
2022-11-18T09:12:22.847Z,14.66
2022-11-18T09:17:15.216Z,15.10
2022-11-18T09:22:07.375Z,14.74
2022-11-18T09:26:59.205Z,14.29
2022-11-18T09:31:51.182Z,14.77
2022-11-18T09:36:42.785Z,15.17
2022-11-18T09:41:49.047Z,15.09
2022-11-18T09:47:04.839Z,15.00
2022-11-18T09:51:57.498Z,14.40
2022-11-18T09:56:51.921Z,15.09
2022-11-18T10:01:44.130Z,14.61
2022-11-18T10:06:35.922Z,15.35
2022-11-18T10:11:42.094Z,15.61
2022-11-18T10:16:50.910Z,15.79
2022-11-18T10:22:24.621Z,15.61
2022-11-18T10:27:17.802Z,16.08
2022-11-18T10:32:15.505Z,16.17
2022-11-18T10:37:28.167Z,15.48
2022-11-18T10:42:46.679Z,15.43
2022-11-18T10:47:38.216Z,15.60
2022-11-18T10:52:30.447Z,15.91
2022-11-18T10:57:24.737Z,15.55
2022-11-18T11:02:39.600Z,16.76
2022-11-18T11:07:37.718Z,17.04
2022-11-18T11:12:33.039Z,16.26
2022-11-18T11:17:39.866Z,16.68
2022-11-18T11:22:31.915Z,16.10
2022-11-18T11:32:56.249Z,16.61
2022-11-18T11:37:55.520Z,16.26
2022-11-18T11:43:05.988Z,16.16
2022-11-18T11:48:03.395Z,16.14
2022-11-18T11:53:30.409Z,16.25
2022-11-18T11:58:28.141Z,16.41
2022-11-18T12:03:25.790Z,16.19
2022-11-18T12:08:17.344Z,16.44
2022-11-18T12:13:30.810Z,16.80
2022-11-18T12:18:42.085Z,17.05
2022-11-18T12:23:34.551Z,17.23
2022-11-18T12:28:26.078Z,17.25
2022-11-18T12:33:18.144Z,16.72
2022-11-18T12:38:29.389Z,17.64
2022-11-18T12:43:48.589Z,17.87
2022-11-18T12:48:41.390Z,17.95
2022-11-18T12:53:37.769Z,18.44
2022-11-18T12:58:29.483Z,18.18
2022-11-18T13:03:28.740Z,17.80
2022-11-18T13:08:20.365Z,17.52
2022-11-18T13:13:32.005Z,17.17
2022-11-18T13:18:23.653Z,17.19
2022-11-18T13:23:33.896Z,17.52
2022-11-18T13:28:45.248Z,16.93
2022-11-18T13:33:39.186Z,16.14
2022-11-18T13:38:30.806Z,17.11
2022-11-18T13:43:26.345Z,17.06
2022-11-18T13:48:18.143Z,16.37
2022-11-18T13:53:42.953Z,17.06
2022-11-18T13:59:15.729Z,16.80
2022-11-18T14:04:25.828Z,16.72
2022-11-18T14:09:27.271Z,16.78
2022-11-18T14:14:29.414Z,16.11
2022-11-18T14:19:32.367Z,14.32
2022-11-18T14:24:27.771Z,16.59
2022-11-18T14:29:23.754Z,16.27
2022-11-18T14:34:26.870Z,14.69
2022-11-18T14:39:30.254Z,15.74
2022-11-18T14:44:24.354Z,14.41
2022-11-18T14:49:19.587Z,14.67
2022-11-18T14:54:20.809Z,14.64
2022-11-18T14:59:17.762Z,14.13
2022-11-18T15:04:09.546Z,14.45
2022-11-18T15:09:01.313Z,14.43
2022-11-18T15:13:52.965Z,13.67
2022-11-18T15:18:47.313Z,13.75
2022-11-18T15:23:39.224Z,14.12
2022-11-18T15:28:30.859Z,13.71
2022-11-18T15:33:22.564Z,14.13
2022-11-18T15:38:14.214Z,13.82
2022-11-18T15:43:05.763Z,13.77
2022-11-18T15:47:57.878Z,13.75
2022-11-18T15:52:49.539Z,13.33
2022-11-18T15:57:41.240Z,13.22
2022-11-18T16:02:33.182Z,10.52
2022-11-18T16:07:25.166Z,12.41
2022-11-18T16:12:36.551Z,12.88
2022-11-18T16:17:28.144Z,12.43
2022-11-18T16:22:19.768Z,12.70
2022-11-18T16:27:11.324Z,12.54
2022-11-18T16:32:12.141Z,12.54
2022-11-18T16:37:06.348Z,13.37
2022-11-18T16:42:07.314Z,13.19
2022-11-18T16:47:00.566Z,12.83
2022-11-18T16:51:54.846Z,12.95
2022-11-18T16:56:47.969Z,12.78
2022-11-18T17:01:39.616Z,13.15
2022-11-18T17:06:31.833Z,13.31
2022-11-18T17:11:23.406Z,13.16
2022-11-18T17:16:17.932Z,12.99
2022-11-18T17:21:17.360Z,12.85
2022-11-18T17:26:13.058Z,12.71
2022-11-18T17:31:06.857Z,12.79
2022-11-18T17:36:03.725Z,12.55
2022-11-18T17:40:56.850Z,12.14
2022-11-18T17:45:53.214Z,11.45
2022-11-18T17:50:44.793Z,11.60
2022-11-18T17:55:36.464Z,12.05
2022-11-18T18:00:29.213Z,12.11
2022-11-18T18:05:21.015Z,12.44
2022-11-18T18:10:12.674Z,12.22
2022-11-18T18:15:05.104Z,12.83
2022-11-18T18:19:56.701Z,12.69
2022-11-18T18:24:48.362Z,12.52
2022-11-18T18:29:39.949Z,12.60
2022-11-18T18:34:31.562Z,12.49
2022-11-18T18:39:23.077Z,12.56
2022-11-18T18:44:18.574Z,12.90
2022-11-18T18:49:13.414Z,12.96
2022-11-18T18:54:06.290Z,13.16
2022-11-18T18:58:58.118Z,12.51
2022-11-18T19:03:57.633Z,12.53
2022-11-18T19:08:49.288Z,12.11
2022-11-18T19:13:41.041Z,12.92
2022-11-18T19:18:35.845Z,12.84
2022-11-18T19:23:27.704Z,12.70
2022-11-18T19:28:19.251Z,12.83
2022-11-18T19:33:12.835Z,12.91
2022-11-18T19:38:04.373Z,11.85
2022-11-18T19:42:55.973Z,12.88
2022-11-18T19:47:47.488Z,12.79
2022-11-18T19:52:39.023Z,12.85
2022-11-18T19:57:31.660Z,12.98
2022-11-18T20:02:23.306Z,12.66
2022-11-18T20:07:14.973Z,12.38
2022-11-18T20:12:06.921Z,12.24
2022-11-18T20:16:58.578Z,12.11
2022-11-18T20:21:50.436Z,12.53
2022-11-18T20:26:42.357Z,12.66
2022-11-18T20:31:35.416Z,11.79
2022-11-18T20:36:31.116Z,12.02
2022-11-18T20:41:23.966Z,12.68
2022-11-18T20:46:20.677Z,12.40
2022-11-18T20:51:24.324Z,12.58
2022-11-18T20:56:18.682Z,12.78
2022-11-18T21:01:15.910Z,12.31
2022-11-18T21:06:14.283Z,12.55
2022-11-18T21:11:08.748Z,12.57
2022-11-18T21:16:01.508Z,12.53
2022-11-18T21:21:15.630Z,11.90
2022-11-18T21:26:13.013Z,12.59
2022-11-18T21:31:09.500Z,12.64
2022-11-18T21:36:01.062Z,12.25
2022-11-18T21:40:52.628Z,12.27
2022-11-18T21:45:44.192Z,12.18
2022-11-18T21:50:35.750Z,12.35
2022-11-18T21:55:27.318Z,12.28
2022-11-18T22:00:19.061Z,12.53
2022-11-18T22:05:10.630Z,12.25
2022-11-18T22:10:02.223Z,12.12
2022-11-18T22:14:53.726Z,12.18
2022-11-18T22:19:45.287Z,11.55
2022-11-18T22:24:36.913Z,11.86
2022-11-18T22:29:28.529Z,12.43
2022-11-18T22:34:20.090Z,12.10
2022-11-18T22:39:11.976Z,11.76
2022-11-18T22:44:07.612Z,12.06
2022-11-18T22:49:00.385Z,12.19
2022-11-18T22:54:09.805Z,12.88
2022-11-18T22:59:04.277Z,10.28
2022-11-18T23:03:55.821Z,12.17
2022-11-18T23:08:47.376Z,12.08
2022-11-18T23:14:03.800Z,11.98
2022-11-18T23:18:56.553Z,11.90
2022-11-18T23:23:48.124Z,12.41
2022-11-18T23:28:40.363Z,12.18
2022-11-18T23:33:32.601Z,12.53
2022-11-18T23:38:24.335Z,12.35
2022-11-18T23:43:16.179Z,11.33
2022-11-18T23:48:07.741Z,11.53
2022-11-18T23:52:59.297Z,12.34
2022-11-18T23:57:50.850Z,11.52
